sensor_id;sensor_type;location;lat;lon;timestamp;P1;durP1;ratioP1;P2;durP2;ratioP2
44766;SDS011;30487;48.716;9.272;2023-05-28T00:00:26;13.52;;;4.93;;
44766;SDS011;30487;48.716;9.272;2023-05-28T00:02:52;9.63;;;3.80;;
44766;SDS011;30487;48.716;9.272;2023-05-28T00:05:18;8.05;;;3.40;;
44766;SDS011;30487;48.716;9.272;2023-05-28T00:07:45;10.73;;;3.55;;
44766;SDS011;30487;48.716;9.272;2023-05-28T00:10:10;12.60;;;3.38;;
44766;SDS011;30487;48.716;9.272;2023-05-28T00:12:36;10.07;;;3.58;;
44766;SDS011;30487;48.716;9.272;2023-05-28T00:15:02;9.63;;;3.47;;
44766;SDS011;30487;48.716;9.272;2023-05-28T00:17:28;7.50;;;3.05;;
44766;SDS011;30487;48.716;9.272;2023-05-28T00:19:53;9.05;;;3.92;;
44766;SDS011;30487;48.716;9.272;2023-05-28T00:22:19;9.55;;;3.58;;
44766;SDS011;30487;48.716;9.272;2023-05-28T00:24:45;13.25;;;4.07;;
44766;SDS011;30487;48.716;9.272;2023-05-28T00:27:10;7.60;;;3.28;;
44766;SDS011;30487;48.716;9.272;2023-05-28T00:29:36;14.35;;;3.55;;
44766;SDS011;30487;48.716;9.272;2023-05-28T00:32:01;7.57;;;3.30;;
44766;SDS011;30487;48.716;9.272;2023-05-28T00:34:27;9.10;;;3.58;;
44766;SDS011;30487;48.716;9.272;2023-05-28T00:36:53;9.50;;;3.38;;
44766;SDS011;30487;48.716;9.272;2023-05-28T00:39:19;8.98;;;3.50;;
44766;SDS011;30487;48.716;9.272;2023-05-28T00:41:45;9.65;;;3.53;;
44766;SDS011;30487;48.716;9.272;2023-05-28T00:44:11;9.43;;;3.38;;
44766;SDS011;30487;48.716;9.272;2023-05-28T00:46:37;10.18;;;3.60;;
44766;SDS011;30487;48.716;9.272;2023-05-28T00:49:06;9.52;;;3.47;;
44766;SDS011;30487;48.716;9.272;2023-05-28T00:51:32;8.93;;;3.40;;
44766;SDS011;30487;48.716;9.272;2023-05-28T00:54:00;12.07;;;3.90;;
44766;SDS011;30487;48.716;9.272;2023-05-28T00:56:26;8.60;;;3.20;;
44766;SDS011;30487;48.716;9.272;2023-05-28T00:58:52;9.60;;;3.50;;
44766;SDS011;30487;48.716;9.272;2023-05-28T01:01:20;8.73;;;3.50;;
44766;SDS011;30487;48.716;9.272;2023-05-28T01:03:49;10.93;;;3.75;;
44766;SDS011;30487;48.716;9.272;2023-05-28T01:06:16;9.27;;;3.58;;
44766;SDS011;30487;48.716;9.272;2023-05-28T01:08:45;9.18;;;3.58;;
44766;SDS011;30487;48.716;9.272;2023-05-28T01:11:13;9.00;;;4.00;;
44766;SDS011;30487;48.716;9.272;2023-05-28T01:13:41;10.60;;;3.75;;
44766;SDS011;30487;48.716;9.272;2023-05-28T01:16:07;8.75;;;3.70;;
44766;SDS011;30487;48.716;9.272;2023-05-28T01:18:34;10.90;;;3.90;;
44766;SDS011;30487;48.716;9.272;2023-05-28T01:21:02;9.02;;;3.67;;
44766;SDS011;30487;48.716;9.272;2023-05-28T01:23:29;9.60;;;3.63;;
44766;SDS011;30487;48.716;9.272;2023-05-28T01:25:57;10.70;;;3.58;;
44766;SDS011;30487;48.716;9.272;2023-05-28T01:28:24;14.18;;;4.20;;
44766;SDS011;30487;48.716;9.272;2023-05-28T01:30:50;14.73;;;5.80;;
44766;SDS011;30487;48.716;9.272;2023-05-28T01:33:17;16.38;;;6.18;;
44766;SDS011;30487;48.716;9.272;2023-05-28T01:35:43;13.48;;;6.35;;
44766;SDS011;30487;48.716;9.272;2023-05-28T01:38:10;12.73;;;4.63;;
44766;SDS011;30487;48.716;9.272;2023-05-28T01:40:39;11.85;;;3.88;;
44766;SDS011;30487;48.716;9.272;2023-05-28T01:43:06;10.38;;;3.83;;
44766;SDS011;30487;48.716;9.272;2023-05-28T01:45:33;12.07;;;4.65;;
44766;SDS011;30487;48.716;9.272;2023-05-28T01:47:59;10.88;;;4.22;;
44766;SDS011;30487;48.716;9.272;2023-05-28T01:50:25;10.07;;;4.20;;
44766;SDS011;30487;48.716;9.272;2023-05-28T01:52:50;10.02;;;4.13;;
44766;SDS011;30487;48.716;9.272;2023-05-28T01:55:16;12.38;;;4.55;;
44766;SDS011;30487;48.716;9.272;2023-05-28T01:57:42;8.70;;;3.75;;
44766;SDS011;30487;48.716;9.272;2023-05-28T02:00:08;12.20;;;4.50;;
44766;SDS011;30487;48.716;9.272;2023-05-28T02:02:35;12.63;;;4.57;;
44766;SDS011;30487;48.716;9.272;2023-05-28T02:05:01;9.00;;;4.15;;
44766;SDS011;30487;48.716;9.272;2023-05-28T02:07:27;12.02;;;3.95;;
44766;SDS011;30487;48.716;9.272;2023-05-28T02:09:52;13.68;;;4.65;;
44766;SDS011;30487;48.716;9.272;2023-05-28T02:12:18;12.68;;;4.40;;
44766;SDS011;30487;48.716;9.272;2023-05-28T02:14:44;11.27;;;3.80;;
44766;SDS011;30487;48.716;9.272;2023-05-28T02:17:10;11.65;;;4.28;;
44766;SDS011;30487;48.716;9.272;2023-05-28T02:19:37;13.82;;;4.05;;
44766;SDS011;30487;48.716;9.272;2023-05-28T02:22:02;12.48;;;4.30;;
44766;SDS011;30487;48.716;9.272;2023-05-28T02:24:36;13.18;;;4.15;;
44766;SDS011;30487;48.716;9.272;2023-05-28T02:27:03;10.27;;;4.22;;
44766;SDS011;30487;48.716;9.272;2023-05-28T02:29:29;9.85;;;4.15;;
44766;SDS011;30487;48.716;9.272;2023-05-28T02:31:55;14.77;;;4.53;;
44766;SDS011;30487;48.716;9.272;2023-05-28T02:34:20;12.85;;;4.15;;
44766;SDS011;30487;48.716;9.272;2023-05-28T02:36:46;12.32;;;4.32;;
44766;SDS011;30487;48.716;9.272;2023-05-28T02:39:12;10.82;;;4.25;;
44766;SDS011;30487;48.716;9.272;2023-05-28T02:41:38;11.65;;;4.05;;
44766;SDS011;30487;48.716;9.272;2023-05-28T02:44:04;10.18;;;4.15;;
44766;SDS011;30487;48.716;9.272;2023-05-28T02:46:29;11.82;;;3.95;;
44766;SDS011;30487;48.716;9.272;2023-05-28T02:48:55;11.10;;;3.97;;
44766;SDS011;30487;48.716;9.272;2023-05-28T02:51:21;13.13;;;4.00;;
44766;SDS011;30487;48.716;9.272;2023-05-28T02:53:46;14.82;;;4.18;;
44766;SDS011;30487;48.716;9.272;2023-05-28T02:56:12;10.73;;;4.30;;
44766;SDS011;30487;48.716;9.272;2023-05-28T02:58:37;8.65;;;3.97;;
44766;SDS011;30487;48.716;9.272;2023-05-28T03:01:04;11.63;;;4.10;;
44766;SDS011;30487;48.716;9.272;2023-05-28T03:03:31;10.73;;;4.00;;
44766;SDS011;30487;48.716;9.272;2023-05-28T03:05:56;9.13;;;4.03;;
44766;SDS011;30487;48.716;9.272;2023-05-28T03:08:22;11.13;;;3.92;;
44766;SDS011;30487;48.716;9.272;2023-05-28T03:10:48;10.80;;;4.18;;
44766;SDS011;30487;48.716;9.272;2023-05-28T03:13:13;9.63;;;4.05;;
44766;SDS011;30487;48.716;9.272;2023-05-28T03:15:39;10.25;;;3.97;;
44766;SDS011;30487;48.716;9.272;2023-05-28T03:18:05;11.15;;;3.90;;
44766;SDS011;30487;48.716;9.272;2023-05-28T03:20:30;12.45;;;3.88;;
44766;SDS011;30487;48.716;9.272;2023-05-28T03:22:56;12.95;;;4.28;;
44766;SDS011;30487;48.716;9.272;2023-05-28T03:25:23;7.80;;;3.67;;
44766;SDS011;30487;48.716;9.272;2023-05-28T03:27:49;11.50;;;3.65;;
44766;SDS011;30487;48.716;9.272;2023-05-28T03:30:15;10.38;;;4.13;;
44766;SDS011;30487;48.716;9.272;2023-05-28T03:32:41;7.90;;;3.33;;
44766;SDS011;30487;48.716;9.272;2023-05-28T03:35:07;9.93;;;3.45;;
44766;SDS011;30487;48.716;9.272;2023-05-28T03:37:33;9.90;;;3.85;;
44766;SDS011;30487;48.716;9.272;2023-05-28T03:39:59;8.98;;;3.72;;
44766;SDS011;30487;48.716;9.272;2023-05-28T03:42:25;10.35;;;3.80;;
44766;SDS011;30487;48.716;9.272;2023-05-28T03:44:50;10.75;;;4.28;;
44766;SDS011;30487;48.716;9.272;2023-05-28T03:47:16;8.27;;;3.40;;
44766;SDS011;30487;48.716;9.272;2023-05-28T03:49:42;11.32;;;4.15;;
44766;SDS011;30487;48.716;9.272;2023-05-28T03:52:08;12.52;;;4.07;;
44766;SDS011;30487;48.716;9.272;2023-05-28T03:54:35;13.32;;;4.03;;
44766;SDS011;30487;48.716;9.272;2023-05-28T03:57:01;12.52;;;4.13;;
44766;SDS011;30487;48.716;9.272;2023-05-28T03:59:28;9.23;;;3.67;;
44766;SDS011;30487;48.716;9.272;2023-05-28T04:01:53;16.50;;;4.13;;
44766;SDS011;30487;48.716;9.272;2023-05-28T04:04:19;9.13;;;3.80;;
44766;SDS011;30487;48.716;9.272;2023-05-28T04:06:45;8.90;;;3.65;;
44766;SDS011;30487;48.716;9.272;2023-05-28T04:09:11;11.70;;;3.85;;
44766;SDS011;30487;48.716;9.272;2023-05-28T04:11:36;9.68;;;4.10;;
44766;SDS011;30487;48.716;9.272;2023-05-28T04:14:03;13.95;;;4.18;;
44766;SDS011;30487;48.716;9.272;2023-05-28T04:16:29;10.40;;;4.22;;
44766;SDS011;30487;48.716;9.272;2023-05-28T04:18:56;7.82;;;3.60;;
44766;SDS011;30487;48.716;9.272;2023-05-28T04:21:22;9.10;;;3.60;;
44766;SDS011;30487;48.716;9.272;2023-05-28T04:23:48;9.23;;;3.75;;
44766;SDS011;30487;48.716;9.272;2023-05-28T04:26:14;9.95;;;3.85;;
44766;SDS011;30487;48.716;9.272;2023-05-28T04:28:41;11.95;;;3.80;;
44766;SDS011;30487;48.716;9.272;2023-05-28T04:31:06;13.50;;;3.75;;
44766;SDS011;30487;48.716;9.272;2023-05-28T04:33:32;10.43;;;3.65;;
44766;SDS011;30487;48.716;9.272;2023-05-28T04:35:58;12.68;;;4.50;;
44766;SDS011;30487;48.716;9.272;2023-05-28T04:38:26;12.52;;;4.38;;
44766;SDS011;30487;48.716;9.272;2023-05-28T04:40:58;9.98;;;3.92;;
44766;SDS011;30487;48.716;9.272;2023-05-28T04:43:25;13.02;;;4.78;;
44766;SDS011;30487;48.716;9.272;2023-05-28T04:45:52;10.65;;;4.38;;
44766;SDS011;30487;48.716;9.272;2023-05-28T04:48:18;12.25;;;4.43;;
44766;SDS011;30487;48.716;9.272;2023-05-28T04:50:44;14.25;;;4.38;;
44766;SDS011;30487;48.716;9.272;2023-05-28T04:53:10;13.38;;;4.47;;
44766;SDS011;30487;48.716;9.272;2023-05-28T04:55:36;8.77;;;3.92;;
44766;SDS011;30487;48.716;9.272;2023-05-28T04:58:01;9.38;;;4.78;;
44766;SDS011;30487;48.716;9.272;2023-05-28T05:00:27;10.88;;;4.05;;
44766;SDS011;30487;48.716;9.272;2023-05-28T05:02:53;11.55;;;4.13;;
44766;SDS011;30487;48.716;9.272;2023-05-28T05:05:19;17.48;;;5.20;;
44766;SDS011;30487;48.716;9.272;2023-05-28T05:07:45;13.38;;;4.60;;
44766;SDS011;30487;48.716;9.272;2023-05-28T05:10:11;12.65;;;4.50;;
44766;SDS011;30487;48.716;9.272;2023-05-28T05:12:38;11.32;;;4.28;;
44766;SDS011;30487;48.716;9.272;2023-05-28T05:15:04;8.77;;;4.03;;
44766;SDS011;30487;48.716;9.272;2023-05-28T05:17:30;14.88;;;4.82;;
44766;SDS011;30487;48.716;9.272;2023-05-28T05:19:57;10.40;;;4.43;;
44766;SDS011;30487;48.716;9.272;2023-05-28T05:22:23;10.68;;;4.10;;
44766;SDS011;30487;48.716;9.272;2023-05-28T05:24:48;8.82;;;4.70;;
44766;SDS011;30487;48.716;9.272;2023-05-28T05:27:14;10.13;;;4.38;;
44766;SDS011;30487;48.716;9.272;2023-05-28T05:29:40;14.88;;;4.55;;
44766;SDS011;30487;48.716;9.272;2023-05-28T05:32:06;13.98;;;5.00;;
44766;SDS011;30487;48.716;9.272;2023-05-28T05:34:32;12.65;;;4.78;;
44766;SDS011;30487;48.716;9.272;2023-05-28T05:36:58;11.10;;;4.90;;
44766;SDS011;30487;48.716;9.272;2023-05-28T05:39:24;10.10;;;4.20;;
44766;SDS011;30487;48.716;9.272;2023-05-28T05:41:49;11.23;;;4.57;;
44766;SDS011;30487;48.716;9.272;2023-05-28T05:44:15;13.93;;;4.60;;
44766;SDS011;30487;48.716;9.272;2023-05-28T05:46:41;11.05;;;4.40;;
44766;SDS011;30487;48.716;9.272;2023-05-28T05:49:06;10.35;;;4.47;;
44766;SDS011;30487;48.716;9.272;2023-05-28T05:51:33;13.90;;;4.97;;
44766;SDS011;30487;48.716;9.272;2023-05-28T05:53:58;12.32;;;4.47;;
44766;SDS011;30487;48.716;9.272;2023-05-28T05:56:24;13.60;;;4.57;;
44766;SDS011;30487;48.716;9.272;2023-05-28T05:58:50;13.95;;;4.50;;
44766;SDS011;30487;48.716;9.272;2023-05-28T06:01:16;12.48;;;4.72;;
44766;SDS011;30487;48.716;9.272;2023-05-28T06:03:42;13.93;;;4.45;;
44766;SDS011;30487;48.716;9.272;2023-05-28T06:06:08;10.02;;;4.65;;
44766;SDS011;30487;48.716;9.272;2023-05-28T06:08:34;11.93;;;4.30;;
44766;SDS011;30487;48.716;9.272;2023-05-28T06:11:00;11.82;;;4.60;;
44766;SDS011;30487;48.716;9.272;2023-05-28T06:13:27;12.85;;;4.65;;
44766;SDS011;30487;48.716;9.272;2023-05-28T06:15:53;19.17;;;4.93;;
44766;SDS011;30487;48.716;9.272;2023-05-28T06:18:19;10.13;;;4.80;;
44766;SDS011;30487;48.716;9.272;2023-05-28T06:20:46;9.10;;;4.32;;
44766;SDS011;30487;48.716;9.272;2023-05-28T06:23:14;10.60;;;4.35;;
44766;SDS011;30487;48.716;9.272;2023-05-28T06:25:40;9.85;;;4.63;;
44766;SDS011;30487;48.716;9.272;2023-05-28T06:28:06;10.73;;;4.28;;
44766;SDS011;30487;48.716;9.272;2023-05-28T06:30:32;11.25;;;4.45;;
44766;SDS011;30487;48.716;9.272;2023-05-28T06:32:58;11.18;;;3.83;;
44766;SDS011;30487;48.716;9.272;2023-05-28T06:35:23;10.93;;;4.38;;
44766;SDS011;30487;48.716;9.272;2023-05-28T06:37:49;11.20;;;4.40;;
44766;SDS011;30487;48.716;9.272;2023-05-28T06:40:15;11.25;;;4.60;;
44766;SDS011;30487;48.716;9.272;2023-05-28T06:42:40;15.00;;;4.25;;
44766;SDS011;30487;48.716;9.272;2023-05-28T06:45:06;10.18;;;5.10;;
44766;SDS011;30487;48.716;9.272;2023-05-28T06:47:32;10.27;;;4.30;;
44766;SDS011;30487;48.716;9.272;2023-05-28T06:49:58;11.25;;;3.35;;
44766;SDS011;30487;48.716;9.272;2023-05-28T06:52:24;12.43;;;3.53;;
44766;SDS011;30487;48.716;9.272;2023-05-28T06:54:50;10.15;;;3.55;;
44766;SDS011;30487;48.716;9.272;2023-05-28T06:57:16;12.75;;;3.50;;
44766;SDS011;30487;48.716;9.272;2023-05-28T06:59:41;9.48;;;3.85;;
44766;SDS011;30487;48.716;9.272;2023-05-28T07:02:07;6.88;;;3.47;;
44766;SDS011;30487;48.716;9.272;2023-05-28T07:04:32;12.20;;;4.07;;
44766;SDS011;30487;48.716;9.272;2023-05-28T07:06:58;12.52;;;4.07;;
44766;SDS011;30487;48.716;9.272;2023-05-28T07:09:23;9.38;;;3.83;;
44766;SDS011;30487;48.716;9.272;2023-05-28T07:11:49;13.50;;;4.30;;
44766;SDS011;30487;48.716;9.272;2023-05-28T07:14:15;10.10;;;3.58;;
44766;SDS011;30487;48.716;9.272;2023-05-28T07:16:41;7.95;;;3.45;;
44766;SDS011;30487;48.716;9.272;2023-05-28T07:19:07;9.73;;;3.40;;
44766;SDS011;30487;48.716;9.272;2023-05-28T07:21:32;11.30;;;3.70;;
44766;SDS011;30487;48.716;9.272;2023-05-28T07:23:58;9.07;;;3.10;;
44766;SDS011;30487;48.716;9.272;2023-05-28T07:26:24;10.82;;;3.28;;
44766;SDS011;30487;48.716;9.272;2023-05-28T07:28:51;12.90;;;4.18;;
44766;SDS011;30487;48.716;9.272;2023-05-28T07:31:16;10.63;;;3.28;;
44766;SDS011;30487;48.716;9.272;2023-05-28T07:33:42;10.30;;;3.40;;
44766;SDS011;30487;48.716;9.272;2023-05-28T07:36:07;14.68;;;3.63;;
44766;SDS011;30487;48.716;9.272;2023-05-28T07:38:33;10.32;;;3.38;;
44766;SDS011;30487;48.716;9.272;2023-05-28T07:40:59;12.20;;;3.42;;
44766;SDS011;30487;48.716;9.272;2023-05-28T07:43:25;11.00;;;3.30;;
44766;SDS011;30487;48.716;9.272;2023-05-28T07:45:50;10.10;;;3.42;;
44766;SDS011;30487;48.716;9.272;2023-05-28T07:48:16;10.30;;;3.53;;
44766;SDS011;30487;48.716;9.272;2023-05-28T07:50:42;11.00;;;3.33;;
44766;SDS011;30487;48.716;9.272;2023-05-28T07:53:08;9.93;;;3.40;;
44766;SDS011;30487;48.716;9.272;2023-05-28T07:55:33;8.77;;;4.03;;
44766;SDS011;30487;48.716;9.272;2023-05-28T07:57:59;12.25;;;3.90;;
44766;SDS011;30487;48.716;9.272;2023-05-28T08:00:25;11.85;;;3.65;;
44766;SDS011;30487;48.716;9.272;2023-05-28T08:02:51;12.75;;;4.28;;
44766;SDS011;30487;48.716;9.272;2023-05-28T08:05:17;12.45;;;4.20;;
44766;SDS011;30487;48.716;9.272;2023-05-28T08:07:43;10.70;;;4.50;;
44766;SDS011;30487;48.716;9.272;2023-05-28T08:10:10;14.82;;;4.10;;
44766;SDS011;30487;48.716;9.272;2023-05-28T08:12:35;12.73;;;4.00;;
44766;SDS011;30487;48.716;9.272;2023-05-28T08:15:01;6.95;;;3.55;;
44766;SDS011;30487;48.716;9.272;2023-05-28T08:17:29;12.45;;;3.63;;
44766;SDS011;30487;48.716;9.272;2023-05-28T08:19:56;12.60;;;4.28;;
44766;SDS011;30487;48.716;9.272;2023-05-28T08:22:22;12.63;;;3.53;;
44766;SDS011;30487;48.716;9.272;2023-05-28T08:24:48;11.75;;;3.55;;
44766;SDS011;30487;48.716;9.272;2023-05-28T08:27:13;9.20;;;3.22;;
44766;SDS011;30487;48.716;9.272;2023-05-28T08:29:39;9.40;;;3.25;;
44766;SDS011;30487;48.716;9.272;2023-05-28T08:32:05;9.52;;;3.80;;
44766;SDS011;30487;48.716;9.272;2023-05-28T08:34:31;13.18;;;3.75;;
44766;SDS011;30487;48.716;9.272;2023-05-28T08:36:59;12.02;;;3.70;;
44766;SDS011;30487;48.716;9.272;2023-05-28T08:39:25;9.15;;;3.30;;
44766;SDS011;30487;48.716;9.272;2023-05-28T08:41:52;10.10;;;3.50;;
44766;SDS011;30487;48.716;9.272;2023-05-28T08:44:18;11.70;;;3.90;;
44766;SDS011;30487;48.716;9.272;2023-05-28T08:46:44;8.27;;;3.28;;
44766;SDS011;30487;48.716;9.272;2023-05-28T08:49:10;9.45;;;3.50;;
44766;SDS011;30487;48.716;9.272;2023-05-28T08:51:38;10.48;;;3.20;;
44766;SDS011;30487;48.716;9.272;2023-05-28T08:54:07;8.80;;;3.22;;
44766;SDS011;30487;48.716;9.272;2023-05-28T08:56:33;11.93;;;3.70;;
44766;SDS011;30487;48.716;9.272;2023-05-28T08:59:00;9.30;;;3.35;;
44766;SDS011;30487;48.716;9.272;2023-05-28T09:01:26;9.85;;;3.88;;
44766;SDS011;30487;48.716;9.272;2023-05-28T09:03:52;12.20;;;3.47;;
44766;SDS011;30487;48.716;9.272;2023-05-28T09:06:18;9.55;;;3.30;;
44766;SDS011;30487;48.716;9.272;2023-05-28T09:08:45;9.55;;;3.45;;
44766;SDS011;30487;48.716;9.272;2023-05-28T09:11:12;8.50;;;3.20;;
44766;SDS011;30487;48.716;9.272;2023-05-28T09:13:42;8.63;;;3.67;;
44766;SDS011;30487;48.716;9.272;2023-05-28T09:16:09;9.48;;;3.78;;
44766;SDS011;30487;48.716;9.272;2023-05-28T09:18:35;8.77;;;3.10;;
44766;SDS011;30487;48.716;9.272;2023-05-28T09:21:06;12.40;;;3.45;;
44766;SDS011;30487;48.716;9.272;2023-05-28T09:23:36;9.65;;;3.58;;
44766;SDS011;30487;48.716;9.272;2023-05-28T09:26:02;10.93;;;3.80;;
44766;SDS011;30487;48.716;9.272;2023-05-28T09:28:28;10.65;;;4.10;;
44766;SDS011;30487;48.716;9.272;2023-05-28T09:31:03;12.43;;;3.40;;
44766;SDS011;30487;48.716;9.272;2023-05-28T09:33:32;12.18;;;3.63;;
44766;SDS011;30487;48.716;9.272;2023-05-28T09:35:58;8.63;;;3.42;;
44766;SDS011;30487;48.716;9.272;2023-05-28T09:38:25;12.57;;;3.72;;
44766;SDS011;30487;48.716;9.272;2023-05-28T09:40:52;10.73;;;3.38;;
44766;SDS011;30487;48.716;9.272;2023-05-28T09:43:27;8.57;;;3.60;;
44766;SDS011;30487;48.716;9.272;2023-05-28T09:46:06;9.07;;;3.30;;
44766;SDS011;30487;48.716;9.272;2023-05-28T09:48:32;14.70;;;3.88;;
44766;SDS011;30487;48.716;9.272;2023-05-28T09:50:59;9.30;;;3.70;;
44766;SDS011;30487;48.716;9.272;2023-05-28T09:53:28;7.63;;;3.25;;
44766;SDS011;30487;48.716;9.272;2023-05-28T09:55:58;14.38;;;3.53;;
44766;SDS011;30487;48.716;9.272;2023-05-28T09:58:27;8.15;;;3.20;;
44766;SDS011;30487;48.716;9.272;2023-05-28T10:00:56;6.60;;;3.22;;
44766;SDS011;30487;48.716;9.272;2023-05-28T10:03:33;9.82;;;3.40;;
44766;SDS011;30487;48.716;9.272;2023-05-28T10:06:04;9.40;;;3.63;;
44766;SDS011;30487;48.716;9.272;2023-05-28T10:11:02;12.25;;;3.50;;
44766;SDS011;30487;48.716;9.272;2023-05-28T10:13:40;7.63;;;3.15;;
44766;SDS011;30487;48.716;9.272;2023-05-28T10:16:06;11.00;;;3.63;;
44766;SDS011;30487;48.716;9.272;2023-05-28T10:18:32;8.48;;;3.45;;
44766;SDS011;30487;48.716;9.272;2023-05-28T10:21:00;11.60;;;4.03;;
44766;SDS011;30487;48.716;9.272;2023-05-28T10:23:27;6.70;;;3.40;;
44766;SDS011;30487;48.716;9.272;2023-05-28T10:25:53;9.90;;;3.50;;
44766;SDS011;30487;48.716;9.272;2023-05-28T10:28:20;9.20;;;3.30;;
44766;SDS011;30487;48.716;9.272;2023-05-28T10:30:47;7.95;;;3.47;;
44766;SDS011;30487;48.716;9.272;2023-05-28T10:33:28;8.77;;;2.90;;
44766;SDS011;30487;48.716;9.272;2023-05-28T10:35:55;8.77;;;2.90;;
44766;SDS011;30487;48.716;9.272;2023-05-28T10:38:22;9.98;;;3.10;;
44766;SDS011;30487;48.716;9.272;2023-05-28T10:40:48;6.97;;;2.92;;
44766;SDS011;30487;48.716;9.272;2023-05-28T10:46:10;7.80;;;3.10;;
44766;SDS011;30487;48.716;9.272;2023-05-28T10:48:40;6.83;;;3.00;;
44766;SDS011;30487;48.716;9.272;2023-05-28T10:51:06;8.25;;;3.00;;
44766;SDS011;30487;48.716;9.272;2023-05-28T10:53:32;6.55;;;3.03;;
44766;SDS011;30487;48.716;9.272;2023-05-28T10:55:57;6.90;;;3.00;;
44766;SDS011;30487;48.716;9.272;2023-05-28T10:58:33;7.50;;;3.13;;
44766;SDS011;30487;48.716;9.272;2023-05-28T11:03:42;7.93;;;3.00;;
44766;SDS011;30487;48.716;9.272;2023-05-28T11:06:16;5.95;;;2.72;;
44766;SDS011;30487;48.716;9.272;2023-05-28T11:08:45;6.95;;;2.75;;
44766;SDS011;30487;48.716;9.272;2023-05-28T11:11:14;7.95;;;2.92;;
44766;SDS011;30487;48.716;9.272;2023-05-28T11:13:44;9.07;;;2.95;;
44766;SDS011;30487;48.716;9.272;2023-05-28T11:16:12;11.32;;;3.15;;
44766;SDS011;30487;48.716;9.272;2023-05-28T11:18:39;8.55;;;3.10;;
44766;SDS011;30487;48.716;9.272;2023-05-28T11:21:23;10.02;;;3.17;;
44766;SDS011;30487;48.716;9.272;2023-05-28T11:23:59;11.07;;;3.40;;
44766;SDS011;30487;48.716;9.272;2023-05-28T11:26:29;6.45;;;3.30;;
44766;SDS011;30487;48.716;9.272;2023-05-28T11:28:56;8.18;;;3.42;;
44766;SDS011;30487;48.716;9.272;2023-05-28T11:31:23;8.38;;;3.22;;
44766;SDS011;30487;48.716;9.272;2023-05-28T11:33:49;9.30;;;2.80;;
44766;SDS011;30487;48.716;9.272;2023-05-28T11:36:14;8.65;;;3.30;;
44766;SDS011;30487;48.716;9.272;2023-05-28T11:38:40;7.90;;;2.85;;
44766;SDS011;30487;48.716;9.272;2023-05-28T11:41:05;6.53;;;3.03;;
44766;SDS011;30487;48.716;9.272;2023-05-28T11:43:31;8.23;;;3.38;;
44766;SDS011;30487;48.716;9.272;2023-05-28T11:45:57;8.90;;;3.50;;
44766;SDS011;30487;48.716;9.272;2023-05-28T11:48:25;8.63;;;3.13;;
44766;SDS011;30487;48.716;9.272;2023-05-28T11:51:01;9.32;;;3.28;;
44766;SDS011;30487;48.716;9.272;2023-05-28T11:53:42;8.35;;;3.25;;
44766;SDS011;30487;48.716;9.272;2023-05-28T11:56:09;7.88;;;3.03;;
44766;SDS011;30487;48.716;9.272;2023-05-28T11:58:35;9.23;;;3.35;;
44766;SDS011;30487;48.716;9.272;2023-05-28T12:01:05;8.93;;;3.45;;
44766;SDS011;30487;48.716;9.272;2023-05-28T12:03:31;9.85;;;3.40;;
44766;SDS011;30487;48.716;9.272;2023-05-28T12:05:58;5.82;;;3.10;;
44766;SDS011;30487;48.716;9.272;2023-05-28T12:08:25;8.13;;;3.40;;
44766;SDS011;30487;48.716;9.272;2023-05-28T12:10:51;9.77;;;4.00;;
44766;SDS011;30487;48.716;9.272;2023-05-28T12:13:17;9.45;;;3.78;;
44766;SDS011;30487;48.716;9.272;2023-05-28T12:15:43;6.90;;;3.30;;
44766;SDS011;30487;48.716;9.272;2023-05-28T12:18:08;8.63;;;3.30;;
44766;SDS011;30487;48.716;9.272;2023-05-28T12:20:36;5.63;;;3.13;;
44766;SDS011;30487;48.716;9.272;2023-05-28T12:23:11;7.78;;;3.03;;
44766;SDS011;30487;48.716;9.272;2023-05-28T12:25:47;8.75;;;3.42;;
44766;SDS011;30487;48.716;9.272;2023-05-28T12:28:14;9.73;;;3.50;;
44766;SDS011;30487;48.716;9.272;2023-05-28T12:30:43;8.02;;;3.78;;
44766;SDS011;30487;48.716;9.272;2023-05-28T12:33:10;10.05;;;3.67;;
44766;SDS011;30487;48.716;9.272;2023-05-28T12:35:36;9.00;;;3.58;;
44766;SDS011;30487;48.716;9.272;2023-05-28T12:38:02;7.78;;;3.83;;
44766;SDS011;30487;48.716;9.272;2023-05-28T12:40:28;8.35;;;4.07;;
44766;SDS011;30487;48.716;9.272;2023-05-28T12:42:54;9.00;;;3.80;;
44766;SDS011;30487;48.716;9.272;2023-05-28T12:45:19;12.90;;;5.72;;
44766;SDS011;30487;48.716;9.272;2023-05-28T12:47:45;9.27;;;4.10;;
44766;SDS011;30487;48.716;9.272;2023-05-28T12:50:11;8.32;;;3.92;;
44766;SDS011;30487;48.716;9.272;2023-05-28T12:52:36;7.63;;;4.00;;
44766;SDS011;30487;48.716;9.272;2023-05-28T12:55:02;5.70;;;3.25;;
44766;SDS011;30487;48.716;9.272;2023-05-28T12:57:28;9.60;;;3.70;;
44766;SDS011;30487;48.716;9.272;2023-05-28T12:59:55;9.30;;;3.97;;
44766;SDS011;30487;48.716;9.272;2023-05-28T13:02:21;10.88;;;3.78;;
44766;SDS011;30487;48.716;9.272;2023-05-28T13:04:47;11.75;;;4.05;;
44766;SDS011;30487;48.716;9.272;2023-05-28T13:07:13;10.38;;;4.20;;
44766;SDS011;30487;48.716;9.272;2023-05-28T13:09:38;7.03;;;3.72;;
44766;SDS011;30487;48.716;9.272;2023-05-28T13:12:04;8.77;;;3.75;;
44766;SDS011;30487;48.716;9.272;2023-05-28T13:14:30;7.00;;;3.53;;
44766;SDS011;30487;48.716;9.272;2023-05-28T13:16:57;11.82;;;3.72;;
44766;SDS011;30487;48.716;9.272;2023-05-28T13:19:26;8.80;;;3.35;;
44766;SDS011;30487;48.716;9.272;2023-05-28T13:21:52;6.68;;;3.30;;
44766;SDS011;30487;48.716;9.272;2023-05-28T13:24:17;7.45;;;3.20;;
44766;SDS011;30487;48.716;9.272;2023-05-28T13:26:43;7.35;;;3.38;;
44766;SDS011;30487;48.716;9.272;2023-05-28T13:29:09;10.65;;;3.97;;
44766;SDS011;30487;48.716;9.272;2023-05-28T13:31:35;6.93;;;3.58;;
44766;SDS011;30487;48.716;9.272;2023-05-28T13:34:01;7.40;;;4.05;;
44766;SDS011;30487;48.716;9.272;2023-05-28T13:36:28;7.47;;;3.60;;
44766;SDS011;30487;48.716;9.272;2023-05-28T13:38:54;6.35;;;3.50;;
44766;SDS011;30487;48.716;9.272;2023-05-28T13:41:20;10.95;;;3.30;;
44766;SDS011;30487;48.716;9.272;2023-05-28T13:43:47;9.50;;;3.17;;
44766;SDS011;30487;48.716;9.272;2023-05-28T13:46:13;6.38;;;3.08;;
44766;SDS011;30487;48.716;9.272;2023-05-28T13:48:41;7.05;;;3.30;;
44766;SDS011;30487;48.716;9.272;2023-05-28T13:51:06;7.68;;;3.20;;
44766;SDS011;30487;48.716;9.272;2023-05-28T13:53:33;6.35;;;2.80;;
44766;SDS011;30487;48.716;9.272;2023-05-28T13:55:59;6.70;;;3.13;;
44766;SDS011;30487;48.716;9.272;2023-05-28T13:58:25;6.63;;;2.92;;
44766;SDS011;30487;48.716;9.272;2023-05-28T14:00:50;8.35;;;3.38;;
44766;SDS011;30487;48.716;9.272;2023-05-28T14:03:16;7.30;;;2.85;;
44766;SDS011;30487;48.716;9.272;2023-05-28T14:05:42;7.25;;;2.97;;
44766;SDS011;30487;48.716;9.272;2023-05-28T14:08:09;6.90;;;2.70;;
44766;SDS011;30487;48.716;9.272;2023-05-28T14:10:35;5.88;;;3.03;;
44766;SDS011;30487;48.716;9.272;2023-05-28T14:13:01;10.48;;;3.13;;
44766;SDS011;30487;48.716;9.272;2023-05-28T14:15:27;9.23;;;3.22;;
44766;SDS011;30487;48.716;9.272;2023-05-28T14:17:52;10.13;;;4.30;;
44766;SDS011;30487;48.716;9.272;2023-05-28T14:20:18;5.88;;;3.38;;
44766;SDS011;30487;48.716;9.272;2023-05-28T14:22:43;8.13;;;3.08;;
44766;SDS011;30487;48.716;9.272;2023-05-28T14:25:10;7.95;;;3.72;;
44766;SDS011;30487;48.716;9.272;2023-05-28T14:27:36;8.55;;;3.38;;
44766;SDS011;30487;48.716;9.272;2023-05-28T14:30:03;8.15;;;3.42;;
44766;SDS011;30487;48.716;9.272;2023-05-28T14:32:29;9.80;;;3.90;;
44766;SDS011;30487;48.716;9.272;2023-05-28T14:34:55;9.95;;;3.70;;
44766;SDS011;30487;48.716;9.272;2023-05-28T14:37:20;8.07;;;3.60;;
44766;SDS011;30487;48.716;9.272;2023-05-28T14:39:46;13.20;;;3.28;;
44766;SDS011;30487;48.716;9.272;2023-05-28T14:42:11;9.45;;;3.85;;
44766;SDS011;30487;48.716;9.272;2023-05-28T14:44:37;7.95;;;3.90;;